sensor_id;sensor_type;location;lat;lon;timestamp;pressure;altitude;pressure_sealevel;temperature
19666;BMP180;9980;51.020;7.772;2023-03-01T00:01:39;98633.00;;;1.20
19666;BMP180;9980;51.020;7.772;2023-03-01T00:04:07;98665.00;;;1.20
19666;BMP180;9980;51.020;7.772;2023-03-01T00:06:34;98645.00;;;1.10
19666;BMP180;9980;51.020;7.772;2023-03-01T00:09:00;98647.00;;;1.10
19666;BMP180;9980;51.020;7.772;2023-03-01T00:11:30;98655.00;;;1.10
19666;BMP180;9980;51.020;7.772;2023-03-01T00:14:00;98660.00;;;1.00
19666;BMP180;9980;51.020;7.772;2023-03-01T00:16:35;98650.00;;;1.00
19666;BMP180;9980;51.020;7.772;2023-03-01T00:19:02;98633.00;;;1.00
19666;BMP180;9980;51.020;7.772;2023-03-01T00:21:29;98639.00;;;1.00
19666;BMP180;9980;51.020;7.772;2023-03-01T00:23:57;98653.00;;;1.00
19666;BMP180;9980;51.020;7.772;2023-03-01T00:26:25;98641.00;;;1.00
19666;BMP180;9980;51.020;7.772;2023-03-01T00:28:54;98652.00;;;0.90
19666;BMP180;9980;51.020;7.772;2023-03-01T00:31:27;98653.00;;;0.90
19666;BMP180;9980;51.020;7.772;2023-03-01T00:33:58;98641.00;;;0.80
19666;BMP180;9980;51.020;7.772;2023-03-01T00:36:30;98615.00;;;0.80
19666;BMP180;9980;51.020;7.772;2023-03-01T00:38:57;98647.00;;;0.80
19666;BMP180;9980;51.020;7.772;2023-03-01T00:41:25;98650.00;;;0.80
19666;BMP180;9980;51.020;7.772;2023-03-01T00:43:56;98655.00;;;0.80
19666;BMP180;9980;51.020;7.772;2023-03-01T00:46:26;98640.00;;;0.80
19666;BMP180;9980;51.020;7.772;2023-03-01T00:48:54;98627.00;;;0.80
19666;BMP180;9980;51.020;7.772;2023-03-01T00:51:27;98632.00;;;0.70
19666;BMP180;9980;51.020;7.772;2023-03-01T00:53:59;98635.00;;;0.70
19666;BMP180;9980;51.020;7.772;2023-03-01T00:56:27;98631.00;;;0.70
19666;BMP180;9980;51.020;7.772;2023-03-01T00:58:54;98615.00;;;0.60
19666;BMP180;9980;51.020;7.772;2023-03-01T01:01:25;98622.00;;;0.60
19666;BMP180;9980;51.020;7.772;2023-03-01T01:04:02;98644.00;;;0.60
19666;BMP180;9980;51.020;7.772;2023-03-01T01:06:34;98646.00;;;0.60
19666;BMP180;9980;51.020;7.772;2023-03-01T01:09:05;98630.00;;;0.50
19666;BMP180;9980;51.020;7.772;2023-03-01T01:11:34;98637.00;;;0.50
19666;BMP180;9980;51.020;7.772;2023-03-01T01:14:03;98626.00;;;0.50
19666;BMP180;9980;51.020;7.772;2023-03-01T01:16:30;98616.00;;;0.50
19666;BMP180;9980;51.020;7.772;2023-03-01T01:18:58;98616.00;;;0.40
19666;BMP180;9980;51.020;7.772;2023-03-01T01:21:27;98585.00;;;0.40
19666;BMP180;9980;51.020;7.772;2023-03-01T01:23:55;98629.00;;;0.40
19666;BMP180;9980;51.020;7.772;2023-03-01T01:26:30;98633.00;;;0.40
19666;BMP180;9980;51.020;7.772;2023-03-01T01:28:59;98616.00;;;0.30
19666;BMP180;9980;51.020;7.772;2023-03-01T01:31:28;98609.00;;;0.30
19666;BMP180;9980;51.020;7.772;2023-03-01T01:33:57;98603.00;;;0.30
19666;BMP180;9980;51.020;7.772;2023-03-01T01:36:25;98601.00;;;0.30
19666;BMP180;9980;51.020;7.772;2023-03-01T01:38:52;98596.00;;;0.30
19666;BMP180;9980;51.020;7.772;2023-03-01T01:41:20;98610.00;;;0.20
19666;BMP180;9980;51.020;7.772;2023-03-01T01:47:11;98606.00;;;0.20
19666;BMP180;9980;51.020;7.772;2023-03-01T01:49:50;98593.00;;;0.10
19666;BMP180;9980;51.020;7.772;2023-03-01T01:52:40;98607.00;;;0.10
19666;BMP180;9980;51.020;7.772;2023-03-01T01:55:15;98594.00;;;0.10
19666;BMP180;9980;51.020;7.772;2023-03-01T01:57:51;98586.00;;;0.10
19666;BMP180;9980;51.020;7.772;2023-03-01T02:00:24;98569.00;;;0.00
19666;BMP180;9980;51.020;7.772;2023-03-01T02:02:59;98547.00;;;0.00
19666;BMP180;9980;51.020;7.772;2023-03-01T02:06:05;98582.00;;;0.00
19666;BMP180;9980;51.020;7.772;2023-03-01T02:08:38;98594.00;;;-0.10
19666;BMP180;9980;51.020;7.772;2023-03-01T02:11:06;98589.00;;;-0.10
19666;BMP180;9980;51.020;7.772;2023-03-01T02:13:34;98590.00;;;-0.10
19666;BMP180;9980;51.020;7.772;2023-03-01T02:16:10;98574.00;;;-0.20
19666;BMP180;9980;51.020;7.772;2023-03-01T02:18:39;98579.00;;;-0.20
19666;BMP180;9980;51.020;7.772;2023-03-01T02:21:34;98588.00;;;-0.20
19666;BMP180;9980;51.020;7.772;2023-03-01T02:27:16;98550.00;;;-0.30
19666;BMP180;9980;51.020;7.772;2023-03-01T02:29:44;98580.00;;;-0.20
19666;BMP180;9980;51.020;7.772;2023-03-01T02:32:14;98567.00;;;-0.30
19666;BMP180;9980;51.020;7.772;2023-03-01T02:34:42;98581.00;;;-0.30
19666;BMP180;9980;51.020;7.772;2023-03-01T02:37:14;98586.00;;;-0.40
19666;BMP180;9980;51.020;7.772;2023-03-01T02:39:53;98576.00;;;-0.40
19666;BMP180;9980;51.020;7.772;2023-03-01T02:42:30;98586.00;;;-0.40
19666;BMP180;9980;51.020;7.772;2023-03-01T02:44:58;98565.00;;;-0.40
19666;BMP180;9980;51.020;7.772;2023-03-01T02:47:25;98566.00;;;-0.40
19666;BMP180;9980;51.020;7.772;2023-03-01T02:49:52;98547.00;;;-0.40
19666;BMP180;9980;51.020;7.772;2023-03-01T02:52:46;98543.00;;;-0.50
19666;BMP180;9980;51.020;7.772;2023-03-01T02:55:17;98569.00;;;-0.50
19666;BMP180;9980;51.020;7.772;2023-03-01T02:57:48;98543.00;;;-0.50
19666;BMP180;9980;51.020;7.772;2023-03-01T03:00:34;98544.00;;;-0.60
19666;BMP180;9980;51.020;7.772;2023-03-01T03:03:03;98534.00;;;-0.60
19666;BMP180;9980;51.020;7.772;2023-03-01T03:05:31;98540.00;;;-0.60
19666;BMP180;9980;51.020;7.772;2023-03-01T03:08:01;98518.00;;;-0.60
19666;BMP180;9980;51.020;7.772;2023-03-01T03:10:37;98528.00;;;-0.60
19666;BMP180;9980;51.020;7.772;2023-03-01T03:13:11;98535.00;;;-0.70
19666;BMP180;9980;51.020;7.772;2023-03-01T03:15:41;98542.00;;;-0.70
19666;BMP180;9980;51.020;7.772;2023-03-01T03:18:12;98535.00;;;-0.70
19666;BMP180;9980;51.020;7.772;2023-03-01T03:20:41;98544.00;;;-0.70
19666;BMP180;9980;51.020;7.772;2023-03-01T03:23:09;98549.00;;;-0.70
19666;BMP180;9980;51.020;7.772;2023-03-01T03:25:36;98525.00;;;-0.80
19666;BMP180;9980;51.020;7.772;2023-03-01T03:28:06;98553.00;;;-0.80
19666;BMP180;9980;51.020;7.772;2023-03-01T03:30:40;98531.00;;;-0.80
19666;BMP180;9980;51.020;7.772;2023-03-01T03:33:09;98510.00;;;-0.90
19666;BMP180;9980;51.020;7.772;2023-03-01T03:35:46;98540.00;;;-0.80
19666;BMP180;9980;51.020;7.772;2023-03-01T03:38:16;98541.00;;;-0.90
19666;BMP180;9980;51.020;7.772;2023-03-01T03:40:47;98518.00;;;-0.90
19666;BMP180;9980;51.020;7.772;2023-03-01T03:43:22;98515.00;;;-0.90
19666;BMP180;9980;51.020;7.772;2023-03-01T03:45:51;98541.00;;;-0.90
19666;BMP180;9980;51.020;7.772;2023-03-01T03:48:19;98524.00;;;-1.00
19666;BMP180;9980;51.020;7.772;2023-03-01T03:50:52;98520.00;;;-1.00
19666;BMP180;9980;51.020;7.772;2023-03-01T03:53:23;98499.00;;;-1.00
19666;BMP180;9980;51.020;7.772;2023-03-01T03:55:51;98514.00;;;-1.00
19666;BMP180;9980;51.020;7.772;2023-03-01T03:58:21;98502.00;;;-1.00
19666;BMP180;9980;51.020;7.772;2023-03-01T04:00:53;98515.00;;;-1.10
19666;BMP180;9980;51.020;7.772;2023-03-01T04:03:24;98516.00;;;-1.10
19666;BMP180;9980;51.020;7.772;2023-03-01T04:05:52;98516.00;;;-1.10
19666;BMP180;9980;51.020;7.772;2023-03-01T04:08:22;98494.00;;;-1.10
19666;BMP180;9980;51.020;7.772;2023-03-01T04:10:55;98497.00;;;-1.20
19666;BMP180;9980;51.020;7.772;2023-03-01T04:13:23;98501.00;;;-1.20
19666;BMP180;9980;51.020;7.772;2023-03-01T04:15:55;98516.00;;;-1.20
19666;BMP180;9980;51.020;7.772;2023-03-01T04:18:23;98502.00;;;-1.20
19666;BMP180;9980;51.020;7.772;2023-03-01T04:20:53;98503.00;;;-1.20
19666;BMP180;9980;51.020;7.772;2023-03-01T04:23:21;98494.00;;;-1.20
19666;BMP180;9980;51.020;7.772;2023-03-01T04:25:56;98500.00;;;-1.30
19666;BMP180;9980;51.020;7.772;2023-03-01T04:30:55;98472.00;;;-1.30
19666;BMP180;9980;51.020;7.772;2023-03-01T04:33:24;98487.00;;;-1.30
19666;BMP180;9980;51.020;7.772;2023-03-01T04:35:51;98472.00;;;-1.40
19666;BMP180;9980;51.020;7.772;2023-03-01T04:38:20;98493.00;;;-1.40
19666;BMP180;9980;51.020;7.772;2023-03-01T04:40:48;98484.00;;;-1.40
19666;BMP180;9980;51.020;7.772;2023-03-01T04:43:15;98489.00;;;-1.40
19666;BMP180;9980;51.020;7.772;2023-03-01T04:45:42;98507.00;;;-1.40
19666;BMP180;9980;51.020;7.772;2023-03-01T04:48:09;98497.00;;;-1.40
19666;BMP180;9980;51.020;7.772;2023-03-01T04:50:36;98491.00;;;-1.40
19666;BMP180;9980;51.020;7.772;2023-03-01T04:53:03;98486.00;;;-1.50
19666;BMP180;9980;51.020;7.772;2023-03-01T04:55:30;98488.00;;;-1.50
19666;BMP180;9980;51.020;7.772;2023-03-01T04:57:57;98487.00;;;-1.50
19666;BMP180;9980;51.020;7.772;2023-03-01T05:00:24;98477.00;;;-1.60
19666;BMP180;9980;51.020;7.772;2023-03-01T05:02:56;98502.00;;;-1.60
19666;BMP180;9980;51.020;7.772;2023-03-01T05:05:31;98501.00;;;-1.60
19666;BMP180;9980;51.020;7.772;2023-03-01T05:08:02;98497.00;;;-1.60
19666;BMP180;9980;51.020;7.772;2023-03-01T05:10:32;98509.00;;;-1.60
19666;BMP180;9980;51.020;7.772;2023-03-01T05:13:03;98494.00;;;-1.60
19666;BMP180;9980;51.020;7.772;2023-03-01T05:15:31;98498.00;;;-1.60
19666;BMP180;9980;51.020;7.772;2023-03-01T05:17:59;98511.00;;;-1.70
19666;BMP180;9980;51.020;7.772;2023-03-01T05:20:30;98506.00;;;-1.70
19666;BMP180;9980;51.020;7.772;2023-03-01T05:22:59;98498.00;;;-1.70
19666;BMP180;9980;51.020;7.772;2023-03-01T05:25:27;98503.00;;;-1.80
19666;BMP180;9980;51.020;7.772;2023-03-01T05:27:54;98500.00;;;-1.80
19666;BMP180;9980;51.020;7.772;2023-03-01T05:30:21;98502.00;;;-1.80
19666;BMP180;9980;51.020;7.772;2023-03-01T05:32:50;98508.00;;;-1.80
19666;BMP180;9980;51.020;7.772;2023-03-01T05:35:23;98520.00;;;-1.90
19666;BMP180;9980;51.020;7.772;2023-03-01T05:37:51;98500.00;;;-1.90
19666;BMP180;9980;51.020;7.772;2023-03-01T05:40:21;98508.00;;;-1.90
19666;BMP180;9980;51.020;7.772;2023-03-01T05:42:55;98485.00;;;-1.90
19666;BMP180;9980;51.020;7.772;2023-03-01T05:45:25;98497.00;;;-1.90
19666;BMP180;9980;51.020;7.772;2023-03-01T05:47:53;98499.00;;;-1.90
19666;BMP180;9980;51.020;7.772;2023-03-01T05:50:31;98486.00;;;-2.00
19666;BMP180;9980;51.020;7.772;2023-03-01T05:53:06;98488.00;;;-2.00
19666;BMP180;9980;51.020;7.772;2023-03-01T05:55:35;98459.00;;;-2.00
19666;BMP180;9980;51.020;7.772;2023-03-01T05:58:06;98480.00;;;-2.00
19666;BMP180;9980;51.020;7.772;2023-03-01T06:00:34;98472.00;;;-2.00
19666;BMP180;9980;51.020;7.772;2023-03-01T06:03:02;98487.00;;;-2.00
19666;BMP180;9980;51.020;7.772;2023-03-01T06:05:29;98461.00;;;-2.10
19666;BMP180;9980;51.020;7.772;2023-03-01T06:07:59;98458.00;;;-2.10
19666;BMP180;9980;51.020;7.772;2023-03-01T06:10:27;98465.00;;;-2.10
19666;BMP180;9980;51.020;7.772;2023-03-01T06:12:55;98475.00;;;-2.10
19666;BMP180;9980;51.020;7.772;2023-03-01T06:15:22;98483.00;;;-2.10
19666;BMP180;9980;51.020;7.772;2023-03-01T06:17:50;98486.00;;;-2.10
19666;BMP180;9980;51.020;7.772;2023-03-01T06:20:20;98479.00;;;-2.10
19666;BMP180;9980;51.020;7.772;2023-03-01T06:22:49;98498.00;;;-2.10
19666;BMP180;9980;51.020;7.772;2023-03-01T06:25:22;98484.00;;;-2.20
19666;BMP180;9980;51.020;7.772;2023-03-01T06:27:50;98474.00;;;-2.20
19666;BMP180;9980;51.020;7.772;2023-03-01T06:30:21;98479.00;;;-2.20
19666;BMP180;9980;51.020;7.772;2023-03-01T06:32:49;98482.00;;;-2.20
19666;BMP180;9980;51.020;7.772;2023-03-01T06:35:18;98482.00;;;-2.20
19666;BMP180;9980;51.020;7.772;2023-03-01T06:37:47;98474.00;;;-2.20
19666;BMP180;9980;51.020;7.772;2023-03-01T06:40:15;98467.00;;;-2.20
19666;BMP180;9980;51.020;7.772;2023-03-01T06:42:48;98475.00;;;-2.20
19666;BMP180;9980;51.020;7.772;2023-03-01T06:45:20;98478.00;;;-2.20
19666;BMP180;9980;51.020;7.772;2023-03-01T06:47:48;98463.00;;;-2.30
19666;BMP180;9980;51.020;7.772;2023-03-01T06:50:16;98481.00;;;-2.30
19666;BMP180;9980;51.020;7.772;2023-03-01T06:52:44;98485.00;;;-2.20
19666;BMP180;9980;51.020;7.772;2023-03-01T06:55:12;98468.00;;;-2.20
19666;BMP180;9980;51.020;7.772;2023-03-01T06:57:39;98477.00;;;-2.20
19666;BMP180;9980;51.020;7.772;2023-03-01T07:00:07;98486.00;;;-2.20
19666;BMP180;9980;51.020;7.772;2023-03-01T07:02:35;98478.00;;;-2.20
19666;BMP180;9980;51.020;7.772;2023-03-01T07:05:02;98469.00;;;-2.20
19666;BMP180;9980;51.020;7.772;2023-03-01T07:07:29;98468.00;;;-2.10
19666;BMP180;9980;51.020;7.772;2023-03-01T07:09:56;98475.00;;;-2.10
19666;BMP180;9980;51.020;7.772;2023-03-01T07:12:23;98464.00;;;-2.00
19666;BMP180;9980;51.020;7.772;2023-03-01T07:14:49;98455.00;;;-2.00
19666;BMP180;9980;51.020;7.772;2023-03-01T07:17:16;98450.00;;;-1.90
19666;BMP180;9980;51.020;7.772;2023-03-01T07:19:43;98446.00;;;-1.80
19666;BMP180;9980;51.020;7.772;2023-03-01T07:22:11;98456.00;;;-1.70
19666;BMP180;9980;51.020;7.772;2023-03-01T07:24:38;98434.00;;;-1.60
19666;BMP180;9980;51.020;7.772;2023-03-01T07:27:05;98450.00;;;-1.50
19666;BMP180;9980;51.020;7.772;2023-03-01T07:29:32;98438.00;;;-1.40
19666;BMP180;9980;51.020;7.772;2023-03-01T07:31:59;98445.00;;;-1.30
19666;BMP180;9980;51.020;7.772;2023-03-01T07:34:26;98430.00;;;-1.20
19666;BMP180;9980;51.020;7.772;2023-03-01T07:36:52;98438.00;;;-1.10
19666;BMP180;9980;51.020;7.772;2023-03-01T07:39:19;98451.00;;;-1.00
19666;BMP180;9980;51.020;7.772;2023-03-01T07:41:46;98438.00;;;-0.90
19666;BMP180;9980;51.020;7.772;2023-03-01T07:44:13;98422.00;;;-0.80
19666;BMP180;9980;51.020;7.772;2023-03-01T07:46:41;98435.00;;;-0.70
19666;BMP180;9980;51.020;7.772;2023-03-01T07:49:09;98442.00;;;-0.70
19666;BMP180;9980;51.020;7.772;2023-03-01T07:51:36;98436.00;;;-0.60
19666;BMP180;9980;51.020;7.772;2023-03-01T07:54:03;98436.00;;;-0.50
19666;BMP180;9980;51.020;7.772;2023-03-01T07:56:30;98427.00;;;-0.40
19666;BMP180;9980;51.020;7.772;2023-03-01T07:58:59;98419.00;;;-0.30
19666;BMP180;9980;51.020;7.772;2023-03-01T08:01:26;98426.00;;;-0.20
19666;BMP180;9980;51.020;7.772;2023-03-01T08:03:53;98428.00;;;-0.10
19666;BMP180;9980;51.020;7.772;2023-03-01T08:06:20;98433.00;;;0.10
19666;BMP180;9980;51.020;7.772;2023-03-01T08:08:47;98433.00;;;0.20
19666;BMP180;9980;51.020;7.772;2023-03-01T08:11:15;98417.00;;;0.30
19666;BMP180;9980;51.020;7.772;2023-03-01T08:13:43;98407.00;;;0.50
19666;BMP180;9980;51.020;7.772;2023-03-01T08:16:13;98404.00;;;0.60
19666;BMP180;9980;51.020;7.772;2023-03-01T08:18:42;98417.00;;;0.80
19666;BMP180;9980;51.020;7.772;2023-03-01T08:21:16;98427.00;;;0.90
19666;BMP180;9980;51.020;7.772;2023-03-01T08:23:43;98409.00;;;1.10
19666;BMP180;9980;51.020;7.772;2023-03-01T08:26:18;98412.00;;;1.30
19666;BMP180;9980;51.020;7.772;2023-03-01T08:28:48;98414.00;;;1.40
19666;BMP180;9980;51.020;7.772;2023-03-01T08:31:25;98415.00;;;1.60
19666;BMP180;9980;51.020;7.772;2023-03-01T08:33:57;98413.00;;;1.80
19666;BMP180;9980;51.020;7.772;2023-03-01T08:36:31;98410.00;;;1.90
19666;BMP180;9980;51.020;7.772;2023-03-01T08:38:59;98414.00;;;2.10
19666;BMP180;9980;51.020;7.772;2023-03-01T08:41:26;98414.00;;;2.20
19666;BMP180;9980;51.020;7.772;2023-03-01T08:43:54;98411.00;;;2.40
19666;BMP180;9980;51.020;7.772;2023-03-01T08:46:33;98404.00;;;2.50
19666;BMP180;9980;51.020;7.772;2023-03-01T08:49:07;98421.00;;;2.70
19666;BMP180;9980;51.020;7.772;2023-03-01T08:51:34;98412.00;;;2.80
19666;BMP180;9980;51.020;7.772;2023-03-01T08:54:15;98432.00;;;3.00
19666;BMP180;9980;51.020;7.772;2023-03-01T08:56:42;98412.00;;;3.10
19666;BMP180;9980;51.020;7.772;2023-03-01T08:59:14;98415.00;;;3.20
19666;BMP180;9980;51.020;7.772;2023-03-01T09:01:41;98410.00;;;3.40
19666;BMP180;9980;51.020;7.772;2023-03-01T09:04:11;98429.00;;;3.50
19666;BMP180;9980;51.020;7.772;2023-03-01T09:06:39;98421.00;;;3.60
19666;BMP180;9980;51.020;7.772;2023-03-01T09:09:06;98402.00;;;3.80
19666;BMP180;9980;51.020;7.772;2023-03-01T09:11:38;98403.00;;;3.90
19666;BMP180;9980;51.020;7.772;2023-03-01T09:14:06;98403.00;;;4.10
19666;BMP180;9980;51.020;7.772;2023-03-01T09:16:33;98391.00;;;4.20
19666;BMP180;9980;51.020;7.772;2023-03-01T09:19:03;98390.00;;;4.30
19666;BMP180;9980;51.020;7.772;2023-03-01T09:21:30;98394.00;;;4.40
19666;BMP180;9980;51.020;7.772;2023-03-01T09:24:14;98398.00;;;4.60
19666;BMP180;9980;51.020;7.772;2023-03-01T09:26:42;98413.00;;;4.70
19666;BMP180;9980;51.020;7.772;2023-03-01T09:29:09;98406.00;;;4.80
19666;BMP180;9980;51.020;7.772;2023-03-01T09:31:36;98404.00;;;4.90
19666;BMP180;9980;51.020;7.772;2023-03-01T09:34:03;98404.00;;;5.10
19666;BMP180;9980;51.020;7.772;2023-03-01T09:36:30;98405.00;;;5.20
19666;BMP180;9980;51.020;7.772;2023-03-01T09:38:58;98389.00;;;5.30
19666;BMP180;9980;51.020;7.772;2023-03-01T09:44:48;98390.00;;;5.50
19666;BMP180;9980;51.020;7.772;2023-03-01T09:47:21;98374.00;;;5.60
19666;BMP180;9980;51.020;7.772;2023-03-01T09:50:02;98386.00;;;5.70
19666;BMP180;9980;51.020;7.772;2023-03-01T10:01:48;98395.00;;;6.20
19666;BMP180;9980;51.020;7.772;2023-03-01T10:04:36;98373.00;;;6.40
19666;BMP180;9980;51.020;7.772;2023-03-01T10:09:40;98369.00;;;6.60
19666;BMP180;9980;51.020;7.772;2023-03-01T10:12:35;98383.00;;;6.70
19666;BMP180;9980;51.020;7.772;2023-03-01T10:15:16;98376.00;;;6.80
19666;BMP180;9980;51.020;7.772;2023-03-01T10:17:49;98365.00;;;6.90
19666;BMP180;9980;51.020;7.772;2023-03-01T10:20:41;98364.00;;;7.00
19666;BMP180;9980;51.020;7.772;2023-03-01T10:23:10;98352.00;;;7.10
19666;BMP180;9980;51.020;7.772;2023-03-01T10:26:07;98362.00;;;7.20
19666;BMP180;9980;51.020;7.772;2023-03-01T10:28:50;98344.00;;;7.30
19666;BMP180;9980;51.020;7.772;2023-03-01T10:31:26;98338.00;;;7.40
19666;BMP180;9980;51.020;7.772;2023-03-01T10:33:56;98331.00;;;7.60
19666;BMP180;9980;51.020;7.772;2023-03-01T10:36:25;98329.00;;;7.70
19666;BMP180;9980;51.020;7.772;2023-03-01T10:38:57;98314.00;;;7.80
19666;BMP180;9980;51.020;7.772;2023-03-01T10:41:26;98325.00;;;7.90
19666;BMP180;9980;51.020;7.772;2023-03-01T10:43:57;98320.00;;;8.00
19666;BMP180;9980;51.020;7.772;2023-03-01T10:46:34;98319.00;;;8.10
19666;BMP180;9980;51.020;7.772;2023-03-01T10:49:22;98310.00;;;8.20
19666;BMP180;9980;51.020;7.772;2023-03-01T10:51:52;98322.00;;;8.20
19666;BMP180;9980;51.020;7.772;2023-03-01T10:54:32;98301.00;;;8.30
19666;BMP180;9980;51.020;7.772;2023-03-01T10:57:02;98300.00;;;8.40
19666;BMP180;9980;51.020;7.772;2023-03-01T10:59:35;98289.00;;;8.40
19666;BMP180;9980;51.020;7.772;2023-03-01T11:02:26;98317.00;;;8.50
19666;BMP180;9980;51.020;7.772;2023-03-01T11:05:23;98300.00;;;8.60
19666;BMP180;9980;51.020;7.772;2023-03-01T11:07:59;98299.00;;;8.60
19666;BMP180;9980;51.020;7.772;2023-03-01T11:10:34;98302.00;;;8.70
19666;BMP180;9980;51.020;7.772;2023-03-01T11:13:17;98296.00;;;8.80
19666;BMP180;9980;51.020;7.772;2023-03-01T11:16:01;98290.00;;;8.90
19666;BMP180;9980;51.020;7.772;2023-03-01T11:18:30;98288.00;;;8.90
19666;BMP180;9980;51.020;7.772;2023-03-01T11:21:15;98281.00;;;9.00
19666;BMP180;9980;51.020;7.772;2023-03-01T11:23:45;98282.00;;;9.10
19666;BMP180;9980;51.020;7.772;2023-03-01T11:26:15;98286.00;;;9.20
19666;BMP180;9980;51.020;7.772;2023-03-01T11:28:51;98289.00;;;9.30
19666;BMP180;9980;51.020;7.772;2023-03-01T11:31:23;98271.00;;;9.30
19666;BMP180;9980;51.020;7.772;2023-03-01T11:34:17;98275.00;;;9.40
19666;BMP180;9980;51.020;7.772;2023-03-01T11:36:59;98282.00;;;9.50
19666;BMP180;9980;51.020;7.772;2023-03-01T11:39:54;98257.00;;;9.60
19666;BMP180;9980;51.020;7.772;2023-03-01T11:45:12;98264.00;;;9.70
19666;BMP180;9980;51.020;7.772;2023-03-01T11:50:44;98260.00;;;9.80
19666;BMP180;9980;51.020;7.772;2023-03-01T11:53:50;98268.00;;;9.90
19666;BMP180;9980;51.020;7.772;2023-03-01T11:56:34;98254.00;;;10.00
19666;BMP180;9980;51.020;7.772;2023-03-01T12:02:17;98247.00;;;10.10
19666;BMP180;9980;51.020;7.772;2023-03-01T12:08:14;98257.00;;;10.30
19666;BMP180;9980;51.020;7.772;2023-03-01T12:21:03;98202.00;;;10.50
19666;BMP180;9980;51.020;7.772;2023-03-01T12:39:45;98216.00;;;11.00
19666;BMP180;9980;51.020;7.772;2023-03-01T12:42:44;98206.00;;;11.00
19666;BMP180;9980;51.020;7.772;2023-03-01T12:48:40;98193.00;;;11.10
19666;BMP180;9980;51.020;7.772;2023-03-01T12:51:15;98201.00;;;11.20
19666;BMP180;9980;51.020;7.772;2023-03-01T12:53:48;98198.00;;;11.20
19666;BMP180;9980;51.020;7.772;2023-03-01T12:56:28;98190.00;;;11.20
19666;BMP180;9980;51.020;7.772;2023-03-01T12:59:20;98180.00;;;11.30
19666;BMP180;9980;51.020;7.772;2023-03-01T13:05:23;98174.00;;;11.30
19666;BMP180;9980;51.020;7.772;2023-03-01T13:11:21;98170.00;;;11.30
19666;BMP180;9980;51.020;7.772;2023-03-01T13:13:49;98175.00;;;11.40
19666;BMP180;9980;51.020;7.772;2023-03-01T13:19:13;98179.00;;;11.40
19666;BMP180;9980;51.020;7.772;2023-03-01T13:21:44;98179.00;;;11.50
19666;BMP180;9980;51.020;7.772;2023-03-01T13:24:37;98177.00;;;11.50
19666;BMP180;9980;51.020;7.772;2023-03-01T13:32:38;98164.00;;;11.70
19666;BMP180;9980;51.020;7.772;2023-03-01T13:37:47;98150.00;;;11.80
19666;BMP180;9980;51.020;7.772;2023-03-01T13:42:51;98158.00;;;11.90
19666;BMP180;9980;51.020;7.772;2023-03-01T13:45:40;98148.00;;;11.90
19666;BMP180;9980;51.020;7.772;2023-03-01T13:48:16;98133.00;;;11.90
19666;BMP180;9980;51.020;7.772;2023-03-01T13:51:04;98128.00;;;11.90
19666;BMP180;9980;51.020;7.772;2023-03-01T13:53:40;98145.00;;;12.00
19666;BMP180;9980;51.020;7.772;2023-03-01T13:56:15;98135.00;;;12.00
19666;BMP180;9980;51.020;7.772;2023-03-01T13:59:33;98130.00;;;12.00
19666;BMP180;9980;51.020;7.772;2023-03-01T14:01:40;98142.00;;;12.00
19666;BMP180;9980;51.020;7.772;2023-03-01T14:04:32;98126.00;;;12.00
19666;BMP180;9980;51.020;7.772;2023-03-01T14:07:10;98134.00;;;12.00
19666;BMP180;9980;51.020;7.772;2023-03-01T14:09:43;98125.00;;;12.00
19666;BMP180;9980;51.020;7.772;2023-03-01T14:15:33;98137.00;;;12.00
19666;BMP180;9980;51.020;7.772;2023-03-01T14:18:12;98135.00;;;12.10
19666;BMP180;9980;51.020;7.772;2023-03-01T14:20:43;98134.00;;;12.10
19666;BMP180;9980;51.020;7.772;2023-03-01T14:23:19;98128.00;;;12.10
19666;BMP180;9980;51.020;7.772;2023-03-01T14:25:57;98117.00;;;12.10
19666;BMP180;9980;51.020;7.772;2023-03-01T14:28:27;98135.00;;;12.10
19666;BMP180;9980;51.020;7.772;2023-03-01T14:30:57;98098.00;;;12.10
19666;BMP180;9980;51.020;7.772;2023-03-01T14:33:35;98122.00;;;12.10
19666;BMP180;9980;51.020;7.772;2023-03-01T14:36:11;98115.00;;;12.20
19666;BMP180;9980;51.020;7.772;2023-03-01T14:38:41;98126.00;;;12.20
19666;BMP180;9980;51.020;7.772;2023-03-01T14:41:13;98121.00;;;12.10
19666;BMP180;9980;51.020;7.772;2023-03-01T14:43:46;98125.00;;;12.10
19666;BMP180;9980;51.020;7.772;2023-03-01T14:46:34;98107.00;;;12.10
19666;BMP180;9980;51.020;7.772;2023-03-01T14:49:19;98122.00;;;12.00
19666;BMP180;9980;51.020;7.772;2023-03-01T14:52:04;98113.00;;;12.00
19666;BMP180;9980;51.020;7.772;2023-03-01T14:54:43;98119.00;;;12.00
19666;BMP180;9980;51.020;7.772;2023-03-01T14:57:21;98109.00;;;11.90
19666;BMP180;9980;51.020;7.772;2023-03-01T14:59:57;98116.00;;;11.90
19666;BMP180;9980;51.020;7.772;2023-03-01T15:02:28;98119.00;;;11.90
19666;BMP180;9980;51.020;7.772;2023-03-01T15:05:00;98110.00;;;11.80
19666;BMP180;9980;51.020;7.772;2023-03-01T15:07:34;98106.00;;;11.80
19666;BMP180;9980;51.020;7.772;2023-03-01T15:10:05;98097.00;;;11.80
19666;BMP180;9980;51.020;7.772;2023-03-01T15:12:40;98089.00;;;11.70
19666;BMP180;9980;51.020;7.772;2023-03-01T15:15:33;98094.00;;;11.70
19666;BMP180;9980;51.020;7.772;2023-03-01T15:18:13;98104.00;;;11.70
19666;BMP180;9980;51.020;7.772;2023-03-01T15:20:41;98084.00;;;11.60
19666;BMP180;9980;51.020;7.772;2023-03-01T15:23:29;98104.00;;;11.60
19666;BMP180;9980;51.020;7.772;2023-03-01T15:25:58;98090.00;;;11.60
19666;BMP180;9980;51.020;7.772;2023-03-01T15:28:34;98077.00;;;11.50
19666;BMP180;9980;51.020;7.772;2023-03-01T15:31:23;98083.00;;;11.50
19666;BMP180;9980;51.020;7.772;2023-03-01T15:33:51;98090.00;;;11.50
19666;BMP180;9980;51.020;7.772;2023-03-01T15:36:43;98104.00;;;11.40
19666;BMP180;9980;51.020;7.772;2023-03-01T15:42:35;98095.00;;;11.30
19666;BMP180;9980;51.020;7.772;2023-03-01T15:47:56;98079.00;;;11.10
19666;BMP180;9980;51.020;7.772;2023-03-01T15:50:36;98074.00;;;11.10
19666;BMP180;9980;51.020;7.772;2023-03-01T15:53:12;98081.00;;;11.10
19666;BMP180;9980;51.020;7.772;2023-03-01T15:55:43;98070.00;;;11.10
19666;BMP180;9980;51.020;7.772;2023-03-01T15:58:22;98073.00;;;11.00
19666;BMP180;9980;51.020;7.772;2023-03-01T16:00:50;98068.00;;;11.00
19666;BMP180;9980;51.020;7.772;2023-03-01T16:03:28;98066.00;;;10.90
19666;BMP180;9980;51.020;7.772;2023-03-01T16:05:56;98070.00;;;10.90
19666;BMP180;9980;51.020;7.772;2023-03-01T16:08:23;98070.00;;;10.90
19666;BMP180;9980;51.020;7.772;2023-03-01T16:10:50;98069.00;;;10.90
19666;BMP180;9980;51.020;7.772;2023-03-01T16:13:18;98078.00;;;10.80
19666;BMP180;9980;51.020;7.772;2023-03-01T16:15:45;98068.00;;;10.80
19666;BMP180;9980;51.020;7.772;2023-03-01T16:18:13;98067.00;;;10.70
19666;BMP180;9980;51.020;7.772;2023-03-01T16:20:40;98078.00;;;10.70
19666;BMP180;9980;51.020;7.772;2023-03-01T16:23:10;98062.00;;;10.60
19666;BMP180;9980;51.020;7.772;2023-03-01T16:25:37;98066.00;;;10.60
19666;BMP180;9980;51.020;7.772;2023-03-01T16:28:04;98068.00;;;10.50
19666;BMP180;9980;51.020;7.772;2023-03-01T16:30:38;98069.00;;;10.50
19666;BMP180;9980;51.020;7.772;2023-03-01T16:33:06;98060.00;;;10.40